sensor_id;sensor_type;location;lat;lon;timestamp;P1;durP1;ratioP1;P2;durP2;ratioP2
34924;SDS011;21130;51.728;8.748;2023-11-19T00:00:22;1.40;;;0.80;;
34924;SDS011;21130;51.728;8.748;2023-11-19T00:02:48;0.30;;;0.30;;
34924;SDS011;21130;51.728;8.748;2023-11-19T00:05:15;0.20;;;0.20;;
34924;SDS011;21130;51.728;8.748;2023-11-19T00:07:41;0.68;;;0.38;;
34924;SDS011;21130;51.728;8.748;2023-11-19T00:10:09;1.20;;;0.30;;
34924;SDS011;21130;51.728;8.748;2023-11-19T00:12:37;1.23;;;0.40;;
34924;SDS011;21130;51.728;8.748;2023-11-19T00:15:06;8.75;;;0.80;;
34924;SDS011;21130;51.728;8.748;2023-11-19T00:17:36;0.45;;;0.28;;
34924;SDS011;21130;51.728;8.748;2023-11-19T00:20:03;0.95;;;0.30;;
34924;SDS011;21130;51.728;8.748;2023-11-19T00:22:31;0.65;;;0.30;;
34924;SDS011;21130;51.728;8.748;2023-11-19T00:24:57;1.25;;;0.43;;
34924;SDS011;21130;51.728;8.748;2023-11-19T00:27:24;0.35;;;0.22;;
34924;SDS011;21130;51.728;8.748;2023-11-19T00:29:51;2.25;;;0.40;;
34924;SDS011;21130;51.728;8.748;2023-11-19T00:32:19;1.27;;;0.30;;
34924;SDS011;21130;51.728;8.748;2023-11-19T00:34:45;0.77;;;0.60;;
34924;SDS011;21130;51.728;8.748;2023-11-19T00:37:12;0.50;;;0.50;;
34924;SDS011;21130;51.728;8.748;2023-11-19T00:39:40;1.17;;;0.60;;
34924;SDS011;21130;51.728;8.748;2023-11-19T00:42:06;1.20;;;1.20;;
34924;SDS011;21130;51.728;8.748;2023-11-19T00:44:35;2.80;;;2.60;;
34924;SDS011;21130;51.728;8.748;2023-11-19T00:47:01;3.42;;;3.22;;
34924;SDS011;21130;51.728;8.748;2023-11-19T00:49:38;1.42;;;1.33;;
34924;SDS011;21130;51.728;8.748;2023-11-19T00:52:05;0.95;;;0.60;;
34924;SDS011;21130;51.728;8.748;2023-11-19T00:54:32;0.43;;;0.43;;
34924;SDS011;21130;51.728;8.748;2023-11-19T00:56:58;0.73;;;0.30;;
34924;SDS011;21130;51.728;8.748;2023-11-19T00:59:26;1.08;;;0.30;;
34924;SDS011;21130;51.728;8.748;2023-11-19T01:01:53;0.28;;;0.28;;
34924;SDS011;21130;51.728;8.748;2023-11-19T01:04:21;0.30;;;0.30;;
34924;SDS011;21130;51.728;8.748;2023-11-19T01:06:50;0.10;;;0.10;;
34924;SDS011;21130;51.728;8.748;2023-11-19T01:09:17;1.05;;;0.20;;
34924;SDS011;21130;51.728;8.748;2023-11-19T01:11:43;0.82;;;0.30;;
34924;SDS011;21130;51.728;8.748;2023-11-19T01:14:10;0.57;;;0.20;;
34924;SDS011;21130;51.728;8.748;2023-11-19T01:16:36;0.20;;;0.20;;
34924;SDS011;21130;51.728;8.748;2023-11-19T01:19:03;0.73;;;0.30;;
34924;SDS011;21130;51.728;8.748;2023-11-19T01:21:30;0.40;;;0.30;;
34924;SDS011;21130;51.728;8.748;2023-11-19T01:23:58;2.20;;;0.20;;
34924;SDS011;21130;51.728;8.748;2023-11-19T01:26:25;1.55;;;0.30;;
34924;SDS011;21130;51.728;8.748;2023-11-19T01:28:51;0.40;;;0.40;;
34924;SDS011;21130;51.728;8.748;2023-11-19T01:31:18;0.20;;;0.20;;
34924;SDS011;21130;51.728;8.748;2023-11-19T01:33:45;0.30;;;0.30;;
34924;SDS011;21130;51.728;8.748;2023-11-19T01:36:12;0.73;;;0.70;;
34924;SDS011;21130;51.728;8.748;2023-11-19T01:38:39;0.20;;;0.20;;
34924;SDS011;21130;51.728;8.748;2023-11-19T01:41:07;0.85;;;0.40;;
34924;SDS011;21130;51.728;8.748;2023-11-19T01:43:34;0.20;;;0.20;;
34924;SDS011;21130;51.728;8.748;2023-11-19T01:46:01;0.40;;;0.40;;
34924;SDS011;21130;51.728;8.748;2023-11-19T01:48:28;3.00;;;0.30;;
34924;SDS011;21130;51.728;8.748;2023-11-19T01:50:55;0.40;;;0.40;;
34924;SDS011;21130;51.728;8.748;2023-11-19T01:53:23;0.45;;;0.45;;
34924;SDS011;21130;51.728;8.748;2023-11-19T01:55:50;0.35;;;0.30;;
34924;SDS011;21130;51.728;8.748;2023-11-19T01:58:18;1.30;;;0.50;;
34924;SDS011;21130;51.728;8.748;2023-11-19T02:00:45;0.40;;;0.40;;
34924;SDS011;21130;51.728;8.748;2023-11-19T02:03:12;0.75;;;0.40;;
34924;SDS011;21130;51.728;8.748;2023-11-19T02:05:41;0.75;;;0.40;;
34924;SDS011;21130;51.728;8.748;2023-11-19T02:08:07;2.92;;;0.63;;
34924;SDS011;21130;51.728;8.748;2023-11-19T02:10:34;2.95;;;0.55;;
34924;SDS011;21130;51.728;8.748;2023-11-19T02:13:01;0.60;;;0.47;;
34924;SDS011;21130;51.728;8.748;2023-11-19T02:15:31;0.93;;;0.68;;
34924;SDS011;21130;51.728;8.748;2023-11-19T02:20:49;0.65;;;0.50;;
34924;SDS011;21130;51.728;8.748;2023-11-19T02:23:16;0.60;;;0.60;;
34924;SDS011;21130;51.728;8.748;2023-11-19T02:25:46;1.40;;;0.50;;
34924;SDS011;21130;51.728;8.748;2023-11-19T02:28:22;1.10;;;0.47;;
34924;SDS011;21130;51.728;8.748;2023-11-19T02:30:49;0.40;;;0.40;;
34924;SDS011;21130;51.728;8.748;2023-11-19T02:33:16;1.02;;;0.60;;
34924;SDS011;21130;51.728;8.748;2023-11-19T02:35:42;0.57;;;0.55;;
34924;SDS011;21130;51.728;8.748;2023-11-19T02:38:09;2.20;;;0.55;;
34924;SDS011;21130;51.728;8.748;2023-11-19T02:40:36;2.17;;;0.98;;
34924;SDS011;21130;51.728;8.748;2023-11-19T02:43:02;1.75;;;1.08;;
34924;SDS011;21130;51.728;8.748;2023-11-19T02:45:31;1.95;;;0.98;;
34924;SDS011;21130;51.728;8.748;2023-11-19T02:47:58;1.13;;;1.00;;
34924;SDS011;21130;51.728;8.748;2023-11-19T02:50:26;1.27;;;1.10;;
34924;SDS011;21130;51.728;8.748;2023-11-19T02:52:54;2.97;;;1.25;;
34924;SDS011;21130;51.728;8.748;2023-11-19T02:55:22;2.42;;;1.00;;
34924;SDS011;21130;51.728;8.748;2023-11-19T02:57:49;0.93;;;0.93;;
34924;SDS011;21130;51.728;8.748;2023-11-19T03:00:18;1.10;;;1.08;;
34924;SDS011;21130;51.728;8.748;2023-11-19T03:02:50;2.22;;;1.15;;
34924;SDS011;21130;51.728;8.748;2023-11-19T03:05:24;1.15;;;1.05;;
34924;SDS011;21130;51.728;8.748;2023-11-19T03:07:51;1.75;;;1.10;;
34924;SDS011;21130;51.728;8.748;2023-11-19T03:10:18;1.15;;;1.10;;
34924;SDS011;21130;51.728;8.748;2023-11-19T03:12:45;1.60;;;1.13;;
34924;SDS011;21130;51.728;8.748;2023-11-19T03:15:11;1.40;;;1.30;;
34924;SDS011;21130;51.728;8.748;2023-11-19T03:17:38;2.20;;;1.55;;
34924;SDS011;21130;51.728;8.748;2023-11-19T03:20:07;1.65;;;1.58;;
34924;SDS011;21130;51.728;8.748;2023-11-19T03:22:38;2.28;;;1.92;;
34924;SDS011;21130;51.728;8.748;2023-11-19T03:25:06;2.20;;;1.98;;
34924;SDS011;21130;51.728;8.748;2023-11-19T03:27:34;1.90;;;1.80;;
34924;SDS011;21130;51.728;8.748;2023-11-19T03:30:01;4.50;;;1.85;;
34924;SDS011;21130;51.728;8.748;2023-11-19T03:32:29;2.50;;;1.75;;
34924;SDS011;21130;51.728;8.748;2023-11-19T03:34:56;3.38;;;1.73;;
34924;SDS011;21130;51.728;8.748;2023-11-19T03:37:24;1.63;;;1.52;;
34924;SDS011;21130;51.728;8.748;2023-11-19T03:39:51;2.90;;;1.83;;
34924;SDS011;21130;51.728;8.748;2023-11-19T03:42:19;1.88;;;1.77;;
34924;SDS011;21130;51.728;8.748;2023-11-19T03:44:45;2.38;;;2.00;;
34924;SDS011;21130;51.728;8.748;2023-11-19T03:47:12;3.55;;;2.05;;
34924;SDS011;21130;51.728;8.748;2023-11-19T03:49:38;1.73;;;1.42;;
34924;SDS011;21130;51.728;8.748;2023-11-19T03:52:05;1.80;;;1.45;;
34924;SDS011;21130;51.728;8.748;2023-11-19T03:54:33;2.50;;;1.40;;
34924;SDS011;21130;51.728;8.748;2023-11-19T03:56:59;2.90;;;1.40;;
34924;SDS011;21130;51.728;8.748;2023-11-19T03:59:28;5.90;;;1.90;;
34924;SDS011;21130;51.728;8.748;2023-11-19T04:01:54;3.45;;;1.40;;
34924;SDS011;21130;51.728;8.748;2023-11-19T04:04:21;2.67;;;1.20;;
34924;SDS011;21130;51.728;8.748;2023-11-19T04:06:48;2.65;;;1.50;;
34924;SDS011;21130;51.728;8.748;2023-11-19T04:09:15;3.45;;;1.70;;
34924;SDS011;21130;51.728;8.748;2023-11-19T04:11:42;1.85;;;1.50;;
34924;SDS011;21130;51.728;8.748;2023-11-19T04:14:12;3.80;;;1.42;;
34924;SDS011;21130;51.728;8.748;2023-11-19T04:16:38;6.20;;;1.52;;
34924;SDS011;21130;51.728;8.748;2023-11-19T04:19:04;7.40;;;1.63;;
34924;SDS011;21130;51.728;8.748;2023-11-19T04:21:31;5.75;;;1.90;;
34924;SDS011;21130;51.728;8.748;2023-11-19T04:23:58;2.17;;;1.30;;
34924;SDS011;21130;51.728;8.748;2023-11-19T04:26:24;5.97;;;1.73;;
34924;SDS011;21130;51.728;8.748;2023-11-19T04:28:52;4.50;;;1.58;;
34924;SDS011;21130;51.728;8.748;2023-11-19T04:31:18;4.47;;;1.50;;
34924;SDS011;21130;51.728;8.748;2023-11-19T04:33:45;5.78;;;1.65;;
34924;SDS011;21130;51.728;8.748;2023-11-19T04:36:12;3.95;;;1.73;;
34924;SDS011;21130;51.728;8.748;2023-11-19T04:38:39;6.25;;;2.25;;
34924;SDS011;21130;51.728;8.748;2023-11-19T04:41:06;5.57;;;1.73;;
34924;SDS011;21130;51.728;8.748;2023-11-19T04:43:33;6.65;;;2.15;;
34924;SDS011;21130;51.728;8.748;2023-11-19T04:46:01;10.20;;;1.98;;
34924;SDS011;21130;51.728;8.748;2023-11-19T04:48:29;5.82;;;1.80;;
34924;SDS011;21130;51.728;8.748;2023-11-19T04:50:56;10.88;;;2.20;;
34924;SDS011;21130;51.728;8.748;2023-11-19T04:53:23;6.85;;;2.30;;
34924;SDS011;21130;51.728;8.748;2023-11-19T04:55:49;8.25;;;2.30;;
34924;SDS011;21130;51.728;8.748;2023-11-19T04:58:16;4.20;;;1.83;;
34924;SDS011;21130;51.728;8.748;2023-11-19T05:00:42;5.95;;;2.30;;
34924;SDS011;21130;51.728;8.748;2023-11-19T05:03:10;8.10;;;2.00;;
34924;SDS011;21130;51.728;8.748;2023-11-19T05:05:37;6.65;;;2.10;;
34924;SDS011;21130;51.728;8.748;2023-11-19T05:08:03;8.38;;;2.42;;
34924;SDS011;21130;51.728;8.748;2023-11-19T05:10:30;9.88;;;1.98;;
34924;SDS011;21130;51.728;8.748;2023-11-19T05:12:56;9.05;;;2.78;;
34924;SDS011;21130;51.728;8.748;2023-11-19T05:15:25;14.20;;;2.75;;
34924;SDS011;21130;51.728;8.748;2023-11-19T05:17:51;13.82;;;2.35;;
34924;SDS011;21130;51.728;8.748;2023-11-19T05:20:19;10.88;;;2.90;;
34924;SDS011;21130;51.728;8.748;2023-11-19T05:22:46;13.55;;;3.05;;
34924;SDS011;21130;51.728;8.748;2023-11-19T05:25:13;12.05;;;3.42;;
34924;SDS011;21130;51.728;8.748;2023-11-19T05:27:39;12.82;;;2.72;;
34924;SDS011;21130;51.728;8.748;2023-11-19T05:30:06;12.02;;;3.53;;
34924;SDS011;21130;51.728;8.748;2023-11-19T05:32:35;9.85;;;3.42;;
34924;SDS011;21130;51.728;8.748;2023-11-19T05:35:02;13.90;;;3.42;;
34924;SDS011;21130;51.728;8.748;2023-11-19T05:37:30;10.63;;;2.80;;
34924;SDS011;21130;51.728;8.748;2023-11-19T05:39:56;15.35;;;3.25;;
34924;SDS011;21130;51.728;8.748;2023-11-19T05:42:25;13.43;;;3.40;;
34924;SDS011;21130;51.728;8.748;2023-11-19T05:44:52;11.95;;;3.42;;
34924;SDS011;21130;51.728;8.748;2023-11-19T05:47:19;18.10;;;4.03;;
34924;SDS011;21130;51.728;8.748;2023-11-19T05:49:45;14.95;;;3.35;;
34924;SDS011;21130;51.728;8.748;2023-11-19T05:52:11;15.63;;;4.10;;
34924;SDS011;21130;51.728;8.748;2023-11-19T05:54:39;20.02;;;3.65;;
34924;SDS011;21130;51.728;8.748;2023-11-19T05:57:07;11.82;;;4.00;;
34924;SDS011;21130;51.728;8.748;2023-11-19T05:59:34;17.58;;;3.70;;
34924;SDS011;21130;51.728;8.748;2023-11-19T06:02:01;17.13;;;3.60;;
34924;SDS011;21130;51.728;8.748;2023-11-19T06:04:28;15.23;;;3.75;;
34924;SDS011;21130;51.728;8.748;2023-11-19T06:06:54;14.10;;;3.22;;
34924;SDS011;21130;51.728;8.748;2023-11-19T06:09:21;17.55;;;3.65;;
34924;SDS011;21130;51.728;8.748;2023-11-19T06:11:52;17.70;;;3.88;;
34924;SDS011;21130;51.728;8.748;2023-11-19T06:14:18;16.15;;;3.78;;
34924;SDS011;21130;51.728;8.748;2023-11-19T06:16:45;18.98;;;3.88;;
34924;SDS011;21130;51.728;8.748;2023-11-19T06:19:11;15.95;;;4.03;;
34924;SDS011;21130;51.728;8.748;2023-11-19T06:21:38;15.77;;;3.42;;
34924;SDS011;21130;51.728;8.748;2023-11-19T06:24:04;25.25;;;4.07;;
34924;SDS011;21130;51.728;8.748;2023-11-19T06:26:31;20.65;;;4.32;;
34924;SDS011;21130;51.728;8.748;2023-11-19T06:29:01;16.13;;;4.53;;
34924;SDS011;21130;51.728;8.748;2023-11-19T06:31:28;19.30;;;4.32;;
34924;SDS011;21130;51.728;8.748;2023-11-19T06:33:54;16.63;;;4.45;;
34924;SDS011;21130;51.728;8.748;2023-11-19T06:36:21;15.00;;;4.00;;
34924;SDS011;21130;51.728;8.748;2023-11-19T06:38:47;18.00;;;4.47;;
34924;SDS011;21130;51.728;8.748;2023-11-19T06:41:14;15.45;;;3.90;;
34924;SDS011;21130;51.728;8.748;2023-11-19T06:43:40;20.52;;;4.47;;
34924;SDS011;21130;51.728;8.748;2023-11-19T06:46:15;19.90;;;4.50;;
34924;SDS011;21130;51.728;8.748;2023-11-19T06:48:41;16.73;;;4.63;;
34924;SDS011;21130;51.728;8.748;2023-11-19T06:51:12;24.25;;;4.72;;
34924;SDS011;21130;51.728;8.748;2023-11-19T06:53:49;20.83;;;4.45;;
34924;SDS011;21130;51.728;8.748;2023-11-19T06:56:19;18.63;;;4.30;;
34924;SDS011;21130;51.728;8.748;2023-11-19T06:58:47;22.50;;;4.20;;
34924;SDS011;21130;51.728;8.748;2023-11-19T07:01:13;21.67;;;4.43;;
34924;SDS011;21130;51.728;8.748;2023-11-19T07:03:41;23.17;;;4.78;;
34924;SDS011;21130;51.728;8.748;2023-11-19T07:06:09;20.73;;;5.07;;
34924;SDS011;21130;51.728;8.748;2023-11-19T07:08:38;19.23;;;4.82;;
34924;SDS011;21130;51.728;8.748;2023-11-19T07:11:04;20.65;;;4.95;;
34924;SDS011;21130;51.728;8.748;2023-11-19T07:13:31;23.90;;;4.90;;
34924;SDS011;21130;51.728;8.748;2023-11-19T07:15:58;23.17;;;4.55;;
34924;SDS011;21130;51.728;8.748;2023-11-19T07:18:24;24.38;;;5.07;;
34924;SDS011;21130;51.728;8.748;2023-11-19T07:20:53;28.90;;;4.75;;
34924;SDS011;21130;51.728;8.748;2023-11-19T07:23:31;26.38;;;5.70;;
34924;SDS011;21130;51.728;8.748;2023-11-19T07:25:58;24.50;;;5.45;;
34924;SDS011;21130;51.728;8.748;2023-11-19T07:28:24;20.48;;;4.32;;
34924;SDS011;21130;51.728;8.748;2023-11-19T07:30:51;19.90;;;4.95;;
34924;SDS011;21130;51.728;8.748;2023-11-19T07:33:16;21.60;;;4.88;;
34924;SDS011;21130;51.728;8.748;2023-11-19T07:35:43;21.33;;;4.15;;
34924;SDS011;21130;51.728;8.748;2023-11-19T07:38:11;29.33;;;5.35;;
34924;SDS011;21130;51.728;8.748;2023-11-19T07:40:37;22.80;;;4.20;;
34924;SDS011;21130;51.728;8.748;2023-11-19T07:43:04;23.40;;;5.10;;
34924;SDS011;21130;51.728;8.748;2023-11-19T07:45:32;23.48;;;5.32;;
34924;SDS011;21130;51.728;8.748;2023-11-19T07:47:59;24.25;;;5.25;;
34924;SDS011;21130;51.728;8.748;2023-11-19T07:50:26;22.08;;;4.97;;
34924;SDS011;21130;51.728;8.748;2023-11-19T07:52:53;25.15;;;5.85;;
34924;SDS011;21130;51.728;8.748;2023-11-19T07:55:28;23.85;;;5.25;;
34924;SDS011;21130;51.728;8.748;2023-11-19T07:58:03;26.00;;;5.60;;
34924;SDS011;21130;51.728;8.748;2023-11-19T08:00:30;20.92;;;4.85;;
34924;SDS011;21130;51.728;8.748;2023-11-19T08:02:56;21.55;;;4.72;;
34924;SDS011;21130;51.728;8.748;2023-11-19T08:05:23;23.25;;;4.85;;
34924;SDS011;21130;51.728;8.748;2023-11-19T08:07:49;23.73;;;5.03;;
34924;SDS011;21130;51.728;8.748;2023-11-19T08:10:18;22.58;;;5.18;;
34924;SDS011;21130;51.728;8.748;2023-11-19T08:12:45;20.02;;;4.75;;
34924;SDS011;21130;51.728;8.748;2023-11-19T08:15:12;20.38;;;5.22;;
34924;SDS011;21130;51.728;8.748;2023-11-19T08:17:39;14.98;;;4.45;;
34924;SDS011;21130;51.728;8.748;2023-11-19T08:20:06;21.48;;;4.97;;
34924;SDS011;21130;51.728;8.748;2023-11-19T08:22:35;17.52;;;5.15;;
34924;SDS011;21130;51.728;8.748;2023-11-19T08:25:02;24.55;;;4.93;;
34924;SDS011;21130;51.728;8.748;2023-11-19T08:27:29;17.20;;;5.00;;
34924;SDS011;21130;51.728;8.748;2023-11-19T08:29:57;18.27;;;4.40;;
34924;SDS011;21130;51.728;8.748;2023-11-19T08:32:23;27.15;;;5.35;;
34924;SDS011;21130;51.728;8.748;2023-11-19T08:34:50;16.92;;;4.93;;
34924;SDS011;21130;51.728;8.748;2023-11-19T08:37:17;18.42;;;4.72;;
34924;SDS011;21130;51.728;8.748;2023-11-19T08:39:45;19.35;;;4.47;;
34924;SDS011;21130;51.728;8.748;2023-11-19T08:42:12;17.33;;;4.68;;
34924;SDS011;21130;51.728;8.748;2023-11-19T08:44:39;22.92;;;5.28;;
34924;SDS011;21130;51.728;8.748;2023-11-19T08:47:09;20.60;;;5.00;;
34924;SDS011;21130;51.728;8.748;2023-11-19T08:49:37;24.75;;;5.57;;
34924;SDS011;21130;51.728;8.748;2023-11-19T08:52:04;22.58;;;5.03;;
34924;SDS011;21130;51.728;8.748;2023-11-19T08:54:32;18.70;;;5.20;;
34924;SDS011;21130;51.728;8.748;2023-11-19T08:56:59;25.02;;;5.10;;
34924;SDS011;21130;51.728;8.748;2023-11-19T08:59:25;21.42;;;5.57;;
34924;SDS011;21130;51.728;8.748;2023-11-19T09:01:52;26.15;;;4.90;;
34924;SDS011;21130;51.728;8.748;2023-11-19T09:04:19;17.70;;;4.88;;
34924;SDS011;21130;51.728;8.748;2023-11-19T09:06:47;25.42;;;5.30;;
34924;SDS011;21130;51.728;8.748;2023-11-19T09:09:14;21.95;;;5.25;;
34924;SDS011;21130;51.728;8.748;2023-11-19T09:11:40;20.83;;;4.43;;
34924;SDS011;21130;51.728;8.748;2023-11-19T09:14:08;19.75;;;5.35;;
34924;SDS011;21130;51.728;8.748;2023-11-19T09:16:34;26.63;;;4.68;;
34924;SDS011;21130;51.728;8.748;2023-11-19T09:19:01;23.48;;;4.85;;
34924;SDS011;21130;51.728;8.748;2023-11-19T09:21:29;25.58;;;4.90;;
34924;SDS011;21130;51.728;8.748;2023-11-19T09:23:55;24.10;;;5.07;;
34924;SDS011;21130;51.728;8.748;2023-11-19T09:26:22;25.30;;;5.10;;
34924;SDS011;21130;51.728;8.748;2023-11-19T09:28:49;24.55;;;5.63;;
34924;SDS011;21130;51.728;8.748;2023-11-19T09:31:16;25.83;;;5.68;;
34924;SDS011;21130;51.728;8.748;2023-11-19T09:33:43;20.45;;;4.13;;
34924;SDS011;21130;51.728;8.748;2023-11-19T09:36:11;26.85;;;5.00;;
34924;SDS011;21130;51.728;8.748;2023-11-19T09:38:41;17.30;;;4.47;;
34924;SDS011;21130;51.728;8.748;2023-11-19T09:41:07;20.40;;;4.50;;
34924;SDS011;21130;51.728;8.748;2023-11-19T09:43:37;26.35;;;4.80;;
34924;SDS011;21130;51.728;8.748;2023-11-19T09:46:05;22.10;;;4.45;;
34924;SDS011;21130;51.728;8.748;2023-11-19T09:48:35;24.65;;;5.53;;
34924;SDS011;21130;51.728;8.748;2023-11-19T09:51:02;22.85;;;5.80;;
34924;SDS011;21130;51.728;8.748;2023-11-19T09:53:30;24.50;;;4.68;;
34924;SDS011;21130;51.728;8.748;2023-11-19T09:55:58;22.25;;;5.47;;
34924;SDS011;21130;51.728;8.748;2023-11-19T09:58:27;26.02;;;5.03;;
34924;SDS011;21130;51.728;8.748;2023-11-19T10:00:54;28.65;;;5.38;;
34924;SDS011;21130;51.728;8.748;2023-11-19T10:03:23;23.17;;;4.88;;
34924;SDS011;21130;51.728;8.748;2023-11-19T10:05:50;26.67;;;5.22;;
34924;SDS011;21130;51.728;8.748;2023-11-19T10:08:17;24.17;;;5.30;;
34924;SDS011;21130;51.728;8.748;2023-11-19T10:10:43;24.25;;;5.07;;
34924;SDS011;21130;51.728;8.748;2023-11-19T10:13:12;24.80;;;5.30;;
34924;SDS011;21130;51.728;8.748;2023-11-19T10:15:39;27.95;;;5.47;;
34924;SDS011;21130;51.728;8.748;2023-11-19T10:18:06;24.60;;;5.35;;
34924;SDS011;21130;51.728;8.748;2023-11-19T10:20:36;21.95;;;4.97;;
34924;SDS011;21130;51.728;8.748;2023-11-19T10:23:03;25.52;;;5.20;;
34924;SDS011;21130;51.728;8.748;2023-11-19T10:25:29;28.38;;;5.80;;
34924;SDS011;21130;51.728;8.748;2023-11-19T10:27:57;21.95;;;5.30;;
34924;SDS011;21130;51.728;8.748;2023-11-19T10:30:25;25.25;;;5.82;;
34924;SDS011;21130;51.728;8.748;2023-11-19T10:33:03;24.48;;;5.30;;
34924;SDS011;21130;51.728;8.748;2023-11-19T10:35:32;26.63;;;5.88;;
34924;SDS011;21130;51.728;8.748;2023-11-19T10:37:59;18.58;;;5.03;;
34924;SDS011;21130;51.728;8.748;2023-11-19T10:40:39;25.45;;;5.35;;
34924;SDS011;21130;51.728;8.748;2023-11-19T10:43:06;23.58;;;4.57;;
34924;SDS011;21130;51.728;8.748;2023-11-19T10:45:35;20.30;;;5.15;;
34924;SDS011;21130;51.728;8.748;2023-11-19T10:48:02;20.27;;;4.78;;
34924;SDS011;21130;51.728;8.748;2023-11-19T10:50:31;25.98;;;5.18;;
34924;SDS011;21130;51.728;8.748;2023-11-19T10:52:59;21.77;;;4.82;;
34924;SDS011;21130;51.728;8.748;2023-11-19T10:55:26;22.60;;;4.85;;
34924;SDS011;21130;51.728;8.748;2023-11-19T10:57:55;25.95;;;5.18;;
34924;SDS011;21130;51.728;8.748;2023-11-19T11:00:25;17.75;;;4.38;;
34924;SDS011;21130;51.728;8.748;2023-11-19T11:02:56;24.23;;;4.72;;
34924;SDS011;21130;51.728;8.748;2023-11-19T11:05:26;28.38;;;5.32;;
34924;SDS011;21130;51.728;8.748;2023-11-19T11:07:55;25.98;;;5.30;;
34924;SDS011;21130;51.728;8.748;2023-11-19T11:10:22;23.88;;;6.10;;
34924;SDS011;21130;51.728;8.748;2023-11-19T11:12:53;20.15;;;4.25;;
34924;SDS011;21130;51.728;8.748;2023-11-19T11:15:25;26.88;;;5.25;;
34924;SDS011;21130;51.728;8.748;2023-11-19T11:17:57;24.80;;;5.28;;
34924;SDS011;21130;51.728;8.748;2023-11-19T11:20:26;22.92;;;4.72;;
34924;SDS011;21130;51.728;8.748;2023-11-19T11:22:56;30.92;;;5.90;;
34924;SDS011;21130;51.728;8.748;2023-11-19T11:25:43;29.15;;;5.60;;
34924;SDS011;21130;51.728;8.748;2023-11-19T11:28:21;20.15;;;4.90;;
34924;SDS011;21130;51.728;8.748;2023-11-19T11:31:02;24.58;;;5.38;;
34924;SDS011;21130;51.728;8.748;2023-11-19T11:33:41;27.02;;;5.28;;
34924;SDS011;21130;51.728;8.748;2023-11-19T11:36:25;20.90;;;4.10;;
34924;SDS011;21130;51.728;8.748;2023-11-19T11:38:52;26.90;;;5.43;;
34924;SDS011;21130;51.728;8.748;2023-11-19T11:41:25;27.55;;;5.40;;
34924;SDS011;21130;51.728;8.748;2023-11-19T11:43:52;19.92;;;4.85;;
34924;SDS011;21130;51.728;8.748;2023-11-19T11:49:29;24.33;;;4.95;;
34924;SDS011;21130;51.728;8.748;2023-11-19T11:51:58;22.08;;;5.40;;
34924;SDS011;21130;51.728;8.748;2023-11-19T11:54:26;22.42;;;5.13;;
34924;SDS011;21130;51.728;8.748;2023-11-19T11:57:00;17.38;;;4.85;;
34924;SDS011;21130;51.728;8.748;2023-11-19T11:59:31;21.98;;;5.20;;
34924;SDS011;21130;51.728;8.748;2023-11-19T12:02:02;22.13;;;5.05;;
34924;SDS011;21130;51.728;8.748;2023-11-19T12:04:30;24.50;;;4.82;;
34924;SDS011;21130;51.728;8.748;2023-11-19T12:07:04;25.42;;;5.57;;
34924;SDS011;21130;51.728;8.748;2023-11-19T12:09:31;23.38;;;5.47;;
34924;SDS011;21130;51.728;8.748;2023-11-19T12:12:07;27.85;;;5.70;;
34924;SDS011;21130;51.728;8.748;2023-11-19T12:17:37;27.13;;;5.30;;
34924;SDS011;21130;51.728;8.748;2023-11-19T12:20:15;18.90;;;4.28;;
34924;SDS011;21130;51.728;8.748;2023-11-19T12:22:43;28.23;;;5.45;;
34924;SDS011;21130;51.728;8.748;2023-11-19T12:25:11;21.08;;;5.10;;
34924;SDS011;21130;51.728;8.748;2023-11-19T12:27:39;24.92;;;5.35;;
34924;SDS011;21130;51.728;8.748;2023-11-19T12:30:05;20.95;;;5.25;;
34924;SDS011;21130;51.728;8.748;2023-11-19T12:32:38;29.48;;;5.60;;
34924;SDS011;21130;51.728;8.748;2023-11-19T12:35:06;27.98;;;5.45;;
34924;SDS011;21130;51.728;8.748;2023-11-19T12:37:40;27.88;;;5.68;;
34924;SDS011;21130;51.728;8.748;2023-11-19T12:40:16;23.50;;;5.20;;
34924;SDS011;21130;51.728;8.748;2023-11-19T12:42:54;26.83;;;5.43;;
34924;SDS011;21130;51.728;8.748;2023-11-19T12:45:21;26.02;;;5.57;;
34924;SDS011;21130;51.728;8.748;2023-11-19T12:47:49;25.40;;;4.97;;
34924;SDS011;21130;51.728;8.748;2023-11-19T12:50:17;29.90;;;6.20;;
34924;SDS011;21130;51.728;8.748;2023-11-19T12:52:56;26.55;;;5.07;;
34924;SDS011;21130;51.728;8.748;2023-11-19T12:55:26;27.42;;;5.13;;
34924;SDS011;21130;51.728;8.748;2023-11-19T12:57:54;25.33;;;4.70;;
34924;SDS011;21130;51.728;8.748;2023-11-19T13:00:21;26.55;;;5.18;;
34924;SDS011;21130;51.728;8.748;2023-11-19T13:02:49;21.77;;;4.88;;
34924;SDS011;21130;51.728;8.748;2023-11-19T13:05:20;21.17;;;4.70;;
34924;SDS011;21130;51.728;8.748;2023-11-19T13:07:51;25.65;;;4.88;;
34924;SDS011;21130;51.728;8.748;2023-11-19T13:10:20;24.48;;;4.63;;
34924;SDS011;21130;51.728;8.748;2023-11-19T13:12:59;25.73;;;5.15;;
34924;SDS011;21130;51.728;8.748;2023-11-19T13:15:26;23.95;;;4.78;;
34924;SDS011;21130;51.728;8.748;2023-11-19T13:17:56;18.98;;;4.47;;
34924;SDS011;21130;51.728;8.748;2023-11-19T13:20:22;28.75;;;5.07;;
34924;SDS011;21130;51.728;8.748;2023-11-19T13:22:55;25.02;;;5.53;;
34924;SDS011;21130;51.728;8.748;2023-11-19T13:25:24;26.00;;;4.97;;
34924;SDS011;21130;51.728;8.748;2023-11-19T13:27:51;20.98;;;4.88;;
34924;SDS011;21130;51.728;8.748;2023-11-19T13:30:18;20.50;;;4.30;;
34924;SDS011;21130;51.728;8.748;2023-11-19T13:32:45;18.77;;;4.53;;
34924;SDS011;21130;51.728;8.748;2023-11-19T13:35:11;20.98;;;4.65;;
34924;SDS011;21130;51.728;8.748;2023-11-19T13:37:38;27.13;;;4.90;;
34924;SDS011;21130;51.728;8.748;2023-11-19T13:40:05;25.73;;;5.00;;
34924;SDS011;21130;51.728;8.748;2023-11-19T13:42:37;26.95;;;4.50;;
34924;SDS011;21130;51.728;8.748;2023-11-19T13:45:06;21.00;;;4.63;;
34924;SDS011;21130;51.728;8.748;2023-11-19T13:47:35;27.45;;;5.50;;
34924;SDS011;21130;51.728;8.748;2023-11-19T13:50:10;20.48;;;4.95;;
34924;SDS011;21130;51.728;8.748;2023-11-19T13:52:38;21.50;;;5.03;;
34924;SDS011;21130;51.728;8.748;2023-11-19T13:55:06;20.73;;;4.68;;
34924;SDS011;21130;51.728;8.748;2023-11-19T13:57:33;22.02;;;4.93;;
34924;SDS011;21130;51.728;8.748;2023-11-19T14:00:01;23.58;;;5.38;;
34924;SDS011;21130;51.728;8.748;2023-11-19T14:02:30;27.15;;;4.57;;
34924;SDS011;21130;51.728;8.748;2023-11-19T14:04:57;16.08;;;3.92;;
34924;SDS011;21130;51.728;8.748;2023-11-19T14:07:23;18.55;;;4.13;;
34924;SDS011;21130;51.728;8.748;2023-11-19T14:16:05;17.70;;;3.50;;
34924;SDS011;21130;51.728;8.748;2023-11-19T14:18:33;23.75;;;4.50;;
34924;SDS011;21130;51.728;8.748;2023-11-19T14:21:01;22.23;;;4.63;;
34924;SDS011;21130;51.728;8.748;2023-11-19T14:23:28;21.45;;;4.63;;
34924;SDS011;21130;51.728;8.748;2023-11-19T14:25:55;17.95;;;3.85;;
34924;SDS011;21130;51.728;8.748;2023-11-19T14:28:21;20.00;;;3.85;;
34924;SDS011;21130;51.728;8.748;2023-11-19T14:30:47;18.77;;;3.90;;
34924;SDS011;21130;51.728;8.748;2023-11-19T14:33:20;15.95;;;3.55;;
34924;SDS011;21130;51.728;8.748;2023-11-19T14:35:46;16.70;;;3.78;;
34924;SDS011;21130;51.728;8.748;2023-11-19T14:38:13;18.00;;;3.47;;
34924;SDS011;21130;51.728;8.748;2023-11-19T14:40:40;12.27;;;3.47;;
34924;SDS011;21130;51.728;8.748;2023-11-19T14:43:07;15.73;;;3.42;;
34924;SDS011;21130;51.728;8.748;2023-11-19T14:45:35;17.73;;;3.38;;
34924;SDS011;21130;51.728;8.748;2023-11-19T14:48:02;16.55;;;3.85;;
34924;SDS011;21130;51.728;8.748;2023-11-19T14:50:30;18.27;;;4.10;;
34924;SDS011;21130;51.728;8.748;2023-11-19T14:52:56;15.50;;;4.00;;
34924;SDS011;21130;51.728;8.748;2023-11-19T14:55:23;17.08;;;3.40;;
34924;SDS011;21130;51.728;8.748;2023-11-19T14:57:51;13.40;;;3.95;;